Time;durP1;ratioP1;P1;durP2;ratioP2;P2;SDS_P1;SDS_P2;PMS_P1;PMS_P2;Temp;Humidity;BMP_temperature;BMP_pressure;BME280_temperature;BME280_humidity;BME280_pressure;Samples;Min_cycle;Max_cycle;Signal;HPM_P1;HPM_P2
2022/09/27 00:00:14;;;;;;;0.10;0.10;;;;;;;8.92;100.00;99558.13;5086931;28;20062;-74
2022/09/27 00:02:39;;;;;;;0.10;0.10;;;;;;;9.16;100.00;99592.47;5088876;28;20114;-73
2022/09/27 00:05:05;;;;;;;0.10;0.10;;;;;;;9.14;100.00;99591.78;5082935;28;20516;-73
2022/09/27 00:07:31;;;;;;;0.10;0.10;;;;;;;8.90;100.00;99565.44;5086734;28;20036;-74
2022/09/27 00:09:56;;;;;;;0.13;0.13;;;;;;;8.95;100.00;99584.63;5086534;28;20027;-73
2022/09/27 00:12:22;;;;;;;0.10;0.10;;;;;;;9.11;100.00;99609.00;5081692;28;20027;-74
2022/09/27 00:14:47;;;;;;;0.10;0.10;;;;;;;9.06;100.00;99594.34;5080245;28;20024;-74
2022/09/27 00:17:12;;;;;;;0.05;0.05;;;;;;;9.03;100.00;99608.00;5082099;28;20458;-77
2022/09/27 00:19:38;;;;;;;0.10;0.10;;;;;;;8.82;100.00;99588.38;5080245;28;20114;-75
2022/09/27 00:22:03;;;;;;;0.10;0.10;;;;;;;8.88;100.00;99602.22;5084668;28;20489;-75
2022/09/27 00:24:28;;;;;;;0.10;0.10;;;;;;;8.79;100.00;99591.34;5083215;28;20059;-77
2022/09/27 00:26:54;;;;;;;0.20;0.20;;;;;;;8.94;100.00;99607.00;5075203;28;20028;-74
2022/09/27 00:29:19;;;;;;;0.10;0.10;;;;;;;8.75;100.00;99581.06;5077100;28;20050;-77
2022/09/27 00:31:45;;;;;;;0.15;0.10;;;;;;;8.83;100.00;99613.34;5075568;28;20789;-74
2022/09/27 00:34:17;;;;;;;0.10;0.10;;;;;;;8.79;100.00;99599.38;5076490;28;20056;-72
2022/09/27 00:36:43;;;;;;;0.10;0.10;;;;;;;8.77;100.00;99605.84;5098312;27;20092;-74
2022/09/27 00:39:08;;;;;;;0.10;0.10;;;;;;;8.86;100.00;99626.44;5079010;28;20468;-72
2022/09/27 00:41:35;;;;;;;0.13;0.13;;;;;;;8.90;100.00;99630.50;5080411;28;20052;-72
2022/09/27 00:44:05;;;;;;;0.20;0.20;;;;;;;8.70;100.00;99603.72;5077546;28;20108;-71
2022/09/27 00:46:36;;;;;;;0.10;0.10;;;;;;;8.65;100.00;99608.63;5080739;28;20778;-70
2022/09/27 00:49:15;;;;;;;0.10;0.10;;;;;;;8.81;100.00;99628.69;5083370;28;20052;-74
2022/09/27 00:51:42;;;;;;;0.10;0.10;;;;;;;8.79;100.00;99614.59;5079378;28;20115;-71
2022/09/27 00:54:10;;;;;;;0.10;0.10;;;;;;;8.78;100.00;99603.03;5078918;28;20064;-71
2022/09/27 00:56:36;;;;;;;0.10;0.10;;;;;;;8.90;100.00;99616.31;5079801;28;20612;-71
2022/09/27 00:59:16;;;;;;;0.10;0.10;;;;;;;8.80;100.00;99630.50;5077127;28;20052;-70
2022/09/27 01:01:42;;;;;;;0.10;0.10;;;;;;;8.89;100.00;99630.66;5078430;28;20119;-71
2022/09/27 01:04:09;;;;;;;0.10;0.10;;;;;;;8.73;100.00;99599.94;5078017;28;20119;-72
2022/09/27 01:06:41;;;;;;;0.20;0.20;;;;;;;8.84;100.00;99626.56;5079848;28;20141;-72
2022/09/27 01:09:08;;;;;;;0.10;0.10;;;;;;;8.85;100.00;99617.56;5073507;28;20031;-72
2022/09/27 01:11:41;;;;;;;0.10;0.10;;;;;;;8.83;100.00;99624.03;5072281;28;20032;-72
2022/09/27 01:14:34;;;;;;;0.10;0.10;;;;;;;8.91;100.00;99626.84;5073037;28;20086;-74
2022/09/27 01:17:24;;;;;;;0.10;0.10;;;;;;;8.88;100.00;99626.28;5082413;28;20418;-72
2022/09/27 01:20:04;;;;;;;0.10;0.10;;;;;;;8.91;100.00;99621.50;5084998;28;20497;-71
2022/09/27 01:22:33;;;;;;;0.10;0.10;;;;;;;8.88;100.00;99628.97;5087408;28;20020;-74
2022/09/27 01:25:35;;;;;;;0.10;0.10;;;;;;;8.83;100.00;99632.06;5077952;28;20024;-72
2022/09/27 01:28:23;;;;;;;0.10;0.10;;;;;;;8.84;100.00;99639.94;5076212;28;20046;-74
2022/09/27 01:31:00;;;;;;;0.08;0.08;;;;;;;8.81;100.00;99637.53;5083111;28;20031;-73
2022/09/27 01:33:42;;;;;;;0.10;0.10;;;;;;;8.71;100.00;99620.63;5079579;28;20043;-72
2022/09/27 01:36:19;;;;;;;0.13;0.13;;;;;;;8.73;100.00;99623.16;5074758;28;20147;-72
2022/09/27 01:39:02;;;;;;;0.10;0.10;;;;;;;8.65;100.00;99623.84;5082040;28;20102;-72
2022/09/27 01:41:45;;;;;;;0.10;0.10;;;;;;;8.78;100.00;99642.34;5078634;28;20128;-72
2022/09/27 01:44:28;;;;;;;0.10;0.10;;;;;;;8.68;100.00;99623.59;5078816;28;20024;-71
2022/09/27 01:46:55;;;;;;;0.10;0.10;;;;;;;8.63;100.00;99613.28;5079231;28;20039;-71
2022/09/27 01:49:30;;;;;;;0.10;0.10;;;;;;;8.33;100.00;99572.22;5079107;28;20043;-72
2022/09/27 01:52:01;;;;;;;0.10;0.10;;;;;;;8.62;100.00;99629.47;5080793;28;20028;-72
2022/09/27 01:54:34;;;;;;;0.10;0.10;;;;;;;8.80;100.00;99656.44;5083617;28;20145;-71
2022/09/27 01:57:00;;;;;;;0.10;0.10;;;;;;;8.68;100.00;99643.16;5093599;28;20046;-72
2022/09/27 01:59:30;;;;;;;0.10;0.10;;;;;;;8.77;100.00;99646.84;5081408;28;20319;-72
2022/09/27 02:01:59;;;;;;;0.10;0.10;;;;;;;8.59;100.00;99624.41;5077870;28;20114;-72
2022/09/27 02:04:31;;;;;;;0.10;0.10;;;;;;;8.76;100.00;99645.13;5080639;28;20470;-72
2022/09/27 02:07:01;;;;;;;0.10;0.10;;;;;;;8.69;100.00;99628.78;5082684;28;20119;-72
2022/09/27 02:09:30;;;;;;;0.10;0.10;;;;;;;8.77;100.00;99648.69;5086737;28;20020;-72
2022/09/27 02:11:59;;;;;;;0.10;0.10;;;;;;;8.85;100.00;99648.84;5080695;28;20028;-72
2022/09/27 02:14:48;;;;;;;0.10;0.10;;;;;;;8.72;100.00;99633.03;5079707;28;20433;-72
2022/09/27 02:17:44;;;;;;;0.10;0.10;;;;;;;8.83;100.00;99658.84;5077957;28;20073;-72
2022/09/27 02:20:27;;;;;;;0.10;0.10;;;;;;;8.84;100.00;99660.53;5078495;28;20508;-72
2022/09/27 02:22:58;;;;;;;0.10;0.10;;;;;;;8.79;100.00;99649.38;5085651;28;20020;-73
2022/09/27 02:25:28;;;;;;;0.10;0.10;;;;;;;8.75;100.00;99653.31;5088149;28;20036;-73
2022/09/27 02:28:05;;;;;;;0.10;0.10;;;;;;;8.70;100.00;99654.56;5085148;28;20471;-72
2022/09/27 02:30:30;;;;;;;0.10;0.10;;;;;;;8.69;100.00;99652.03;5087107;28;20034;-73
2022/09/27 02:32:55;;;;;;;0.10;0.10;;;;;;;8.73;100.00;99650.78;5088742;28;20021;-73
2022/09/27 02:35:28;;;;;;;0.10;0.10;;;;;;;8.76;100.00;99650.50;5081834;28;20370;-72
2022/09/27 02:37:55;;;;;;;0.10;0.10;;;;;;;8.41;100.00;99614.31;5083028;28;20482;-72
2022/09/27 02:40:21;;;;;;;0.10;0.10;;;;;;;8.67;100.00;99654.84;5089317;28;20053;-72
2022/09/27 02:42:47;;;;;;;0.10;0.10;;;;;;;8.56;100.00;99630.88;5088998;28;20103;-73
2022/09/27 02:45:13;;;;;;;0.10;0.10;;;;;;;8.45;100.00;99629.13;5088294;28;20111;-72
2022/09/27 02:47:56;;;;;;;0.10;0.10;;;;;;;8.59;100.00;99657.38;5091056;28;20064;-73
2022/09/27 02:51:13;;;;;;;0.10;0.10;;;;;;;8.38;100.00;99620.78;5080306;28;20074;-74
2022/09/27 02:54:03;;;;;;;0.10;0.10;;;;;;;8.62;100.00;99650.88;5089026;28;20131;-73
2022/09/27 02:56:39;;;;;;;0.00;0.00;;;;;;;8.68;100.00;99656.53;5081312;28;20028;-73
2022/09/27 02:59:16;;;;;;;0.10;0.10;;;;;;;8.61;100.00;99654.53;5083853;28;20051;-72
2022/09/27 03:01:55;;;;;;;0.10;0.10;;;;;;;8.55;100.00;99655.94;5084769;28;20031;-74
2022/09/27 03:04:38;;;;;;;0.10;0.10;;;;;;;8.40;100.00;99640.22;5086131;28;20576;-74
2022/09/27 03:07:03;;;;;;;0.10;0.10;;;;;;;8.44;100.00;99659.53;5074461;28;20024;-75
2022/09/27 03:09:40;;;;;;;0.10;0.10;;;;;;;8.48;100.00;99665.44;5083869;28;20032;-73
2022/09/27 03:12:05;;;;;;;0.20;0.20;;;;;;;8.39;100.00;99662.59;5074711;28;20028;-74
2022/09/27 03:14:30;;;;;;;0.10;0.10;;;;;;;8.31;100.00;99642.84;5080558;28;20039;-73
2022/09/27 03:16:56;;;;;;;0.10;0.10;;;;;;;8.46;100.00;99654.91;5073885;28;20025;-72
2022/09/27 03:19:23;;;;;;;0.03;0.03;;;;;;;8.41;100.00;99660.63;5074985;28;20024;-74
2022/09/27 03:21:48;;;;;;;0.10;0.10;;;;;;;8.41;100.00;99662.47;5074955;28;20135;-73
2022/09/27 03:24:13;;;;;;;0.00;0.00;;;;;;;8.21;100.00;99629.44;5074277;28;20031;-76
2022/09/27 03:26:39;;;;;;;0.10;0.10;;;;;;;8.43;100.00;99667.69;5074526;28;20723;-72
2022/09/27 03:29:04;;;;;;;0.10;0.10;;;;;;;8.47;100.00;99658.41;5075781;28;20525;-73
2022/09/27 03:31:29;;;;;;;0.10;0.10;;;;;;;8.24;100.00;99640.72;5079943;28;20042;-73
2022/09/27 03:33:54;;;;;;;0.20;0.20;;;;;;;8.29;100.00;99647.50;5080643;28;20043;-73
2022/09/27 03:36:20;;;;;;;0.13;0.13;;;;;;;8.26;100.00;99656.63;5078383;28;20037;-71
2022/09/27 03:38:45;;;;;;;0.10;0.10;;;;;;;7.96;100.00;99610.19;5077340;28;20052;-73
2022/09/27 03:41:10;;;;;;;0.10;0.10;;;;;;;8.19;100.00;99658.13;5088572;28;20036;-73
2022/09/27 03:43:36;;;;;;;0.10;0.10;;;;;;;8.01;100.00;99625.81;5077069;28;20031;-74
2022/09/27 03:46:01;;;;;;;0.10;0.10;;;;;;;8.00;100.00;99649.03;5079578;28;20048;-72
2022/09/27 03:48:26;;;;;;;0.15;0.15;;;;;;;7.90;100.00;99640.97;5059611;28;20028;-74
2022/09/27 03:50:51;;;;;;;0.10;0.10;;;;;;;7.89;100.00;99652.66;5080270;28;20568;-72
2022/09/27 03:53:17;;;;;;;0.10;0.10;;;;;;;8.10;100.00;99678.50;5084531;28;20097;-70
2022/09/27 03:55:44;;;;;;;0.10;0.10;;;;;;;7.94;100.00;99669.13;5078291;28;20015;-72
2022/09/27 03:58:10;;;;;;;0.10;0.10;;;;;;;7.76;100.00;99668.88;5078569;28;20138;-74
2022/09/27 04:00:36;;;;;;;0.10;0.10;;;;;;;7.83;100.00;99671.00;5079973;28;20073;-77
2022/09/27 04:03:01;;;;;;;0.15;0.15;;;;;;;7.90;100.00;99670.38;5074137;28;20035;-73
2022/09/27 04:05:27;;;;;;;0.10;0.10;;;;;;;7.80;100.00;99648.94;5074173;28;20028;-72
2022/09/27 04:07:52;;;;;;;0.10;0.10;;;;;;;8.01;100.00;99695.31;5073013;28;20034;-76
2022/09/27 04:10:18;;;;;;;0.10;0.10;;;;;;;8.02;100.00;99675.63;5080291;28;20032;-72
2022/09/27 04:12:43;;;;;;;0.13;0.13;;;;;;;8.07;100.00;99668.06;5076226;28;20036;-72
2022/09/27 04:15:09;;;;;;;0.10;0.10;;;;;;;8.05;100.00;99665.53;5079522;28;20081;-74
2022/09/27 04:17:35;;;;;;;0.10;0.10;;;;;;;8.15;100.00;99672.75;5079493;28;20020;-73
2022/09/27 04:20:02;;;;;;;0.10;0.10;;;;;;;8.00;100.00;99645.50;5081638;28;20405;-78
2022/09/27 04:22:29;;;;;;;0.10;0.10;;;;;;;8.15;100.00;99654.91;5082373;28;20035;-76
2022/09/27 04:24:54;;;;;;;0.20;0.20;;;;;;;8.07;100.00;99655.56;5080578;28;20028;-77
2022/09/27 04:27:21;;;;;;;0.10;0.10;;;;;;;7.87;100.00;99614.50;5073095;28;20028;-77
2022/09/27 04:29:46;;;;;;;0.00;0.00;;;;;;;8.07;100.00;99650.22;5085271;28;20027;-75
2022/09/27 04:32:12;;;;;;;0.10;0.10;;;;;;;8.06;100.00;99648.53;5066991;28;20081;-71
2022/09/27 04:37:21;;;;;;;0.10;0.10;;;;;;;8.10;100.00;99649.09;5076629;28;20504;-72
2022/09/27 04:39:48;;;;;;;0.10;0.10;;;;;;;8.04;100.00;99657.63;5082044;28;20027;-74
2022/09/27 04:42:13;;;;;;;0.10;0.10;;;;;;;8.03;100.00;99661.28;5083080;28;20035;-73
2022/09/27 04:44:39;;;;;;;0.10;0.10;;;;;;;8.03;100.00;99666.63;5083069;28;20024;-72
2022/09/27 04:47:04;;;;;;;0.10;0.10;;;;;;;7.92;100.00;99667.56;5078011;28;20543;-73
2022/09/27 04:49:29;;;;;;;0.00;0.00;;;;;;;8.01;100.00;99664.09;5083221;28;20032;-73
2022/09/27 04:51:55;;;;;;;0.05;0.05;;;;;;;8.04;100.00;99666.53;5082995;28;20041;-73
2022/09/27 04:54:21;;;;;;;0.10;0.10;;;;;;;7.87;100.00;99640.38;5081993;28;20498;-76
2022/09/27 04:56:47;;;;;;;0.00;0.00;;;;;;;7.80;100.00;99646.28;5083089;28;20030;-73
2022/09/27 04:59:13;;;;;;;0.10;0.10;;;;;;;7.85;100.00;99669.06;5080669;28;20035;-75
2022/09/27 05:01:39;;;;;;;0.10;0.10;;;;;;;7.84;100.00;99678.91;5081292;28;20062;-78
2022/09/27 05:04:04;;;;;;;0.10;0.10;;;;;;;7.71;100.00;99663.06;5079869;28;20024;-75
2022/09/27 05:06:29;;;;;;;0.15;0.15;;;;;;;7.89;100.00;99676.69;5074035;28;20036;-75
2022/09/27 05:08:54;;;;;;;0.10;0.10;;;;;;;7.85;100.00;99688.63;5081320;28;20103;-78
2022/09/27 05:11:21;;;;;;;0.10;0.10;;;;;;;7.71;100.00;99673.75;5073529;28;20160;-73
2022/09/27 05:13:46;;;;;;;0.10;0.10;;;;;;;7.87;100.00;99700.03;5081794;28;20031;-71
2022/09/27 05:16:12;;;;;;;0.10;0.10;;;;;;;7.89;100.00;99699.88;5079050;28;20051;-73
2022/09/27 05:18:37;;;;;;;0.10;0.10;;;;;;;7.80;100.00;99666.78;5077967;28;20111;-75
2022/09/27 05:21:03;;;;;;;0.10;0.10;;;;;;;7.82;100.00;99670.16;5074354;28;20051;-73
2022/09/27 05:23:28;;;;;;;0.00;0.00;;;;;;;7.96;100.00;99693.88;5081690;28;20038;-73
2022/09/27 05:25:56;;;;;;;0.10;0.10;;;;;;;7.92;100.00;99696.97;5075059;28;20040;-74
2022/09/27 05:28:23;;;;;;;0.10;0.10;;;;;;;7.90;100.00;99677.53;5083435;28;20524;-72
2022/09/27 05:30:48;;;;;;;0.10;0.10;;;;;;;7.98;100.00;99691.09;5082336;28;20033;-71
2022/09/27 05:33:14;;;;;;;0.10;0.10;;;;;;;7.81;100.00;99658.63;5086121;28;20064;-74
2022/09/27 05:35:41;;;;;;;0.10;0.10;;;;;;;8.04;100.00;99689.72;5080462;28;20091;-73
2022/09/27 05:38:06;;;;;;;0.10;0.10;;;;;;;7.82;100.00;99659.47;5082882;28;20425;-72
2022/09/27 05:40:31;;;;;;;0.10;0.10;;;;;;;7.85;100.00;99687.75;5081204;28;20579;-78
2022/09/27 05:42:57;;;;;;;0.00;0.00;;;;;;;7.94;100.00;99687.00;5076502;28;20031;-75
2022/09/27 05:45:23;;;;;;;0.10;0.10;;;;;;;7.80;100.00;99674.78;5080154;28;20082;-75
2022/09/27 05:47:53;;;;;;;0.13;0.10;;;;;;;8.00;100.00;99688.28;5080638;28;20032;-73
2022/09/27 05:50:18;;;;;;;0.00;0.00;;;;;;;7.86;100.00;99686.78;5084393;28;20062;-76
2022/09/27 05:52:43;;;;;;;0.10;0.10;;;;;;;7.79;100.00;99681.97;5075884;28;20139;-72
2022/09/27 05:55:09;;;;;;;0.10;0.10;;;;;;;7.93;100.00;99685.28;5079133;28;20440;-71
2022/09/27 05:57:35;;;;;;;0.10;0.10;;;;;;;7.90;100.00;99681.06;5077067;28;20519;-76
2022/09/27 06:00:00;;;;;;;0.10;0.10;;;;;;;7.89;100.00;99687.38;5079072;28;20027;-73
2022/09/27 06:02:26;;;;;;;0.10;0.10;;;;;;;7.93;100.00;99685.28;5073830;28;20059;-75
2022/09/27 06:04:51;;;;;;;0.10;0.10;;;;;;;7.85;100.00;99669.91;5076019;28;20127;-73
2022/09/27 06:07:16;;;;;;;0.10;0.10;;;;;;;7.72;100.00;99654.06;5077034;28;20670;-75
2022/09/27 06:09:43;;;;;;;0.10;0.10;;;;;;;7.84;100.00;99694.94;5081273;28;20030;-72
2022/09/27 06:12:10;;;;;;;0.10;0.10;;;;;;;7.91;100.00;99700.59;5072547;28;20050;-73
2022/09/27 06:14:36;;;;;;;0.10;0.10;;;;;;;7.98;100.00;99693.78;5082493;28;20226;-72
2022/09/27 06:17:02;;;;;;;0.10;0.10;;;;;;;7.96;100.00;99712.59;5078346;28;20024;-74
2022/09/27 06:19:28;;;;;;;0.00;0.00;;;;;;;8.02;100.00;99707.72;5077559;28;20085;-75
2022/09/27 06:21:53;;;;;;;0.10;0.10;;;;;;;8.07;100.00;99711.72;5079110;28;20035;-73
2022/09/27 06:24:18;;;;;;;0.10;0.10;;;;;;;8.02;100.00;99713.06;5070783;28;20538;-74
2022/09/27 06:26:45;;;;;;;0.10;0.10;;;;;;;8.09;100.00;99720.41;5078085;28;20038;-72
2022/09/27 06:29:10;;;;;;;0.10;0.10;;;;;;;8.21;100.00;99739.06;5081534;28;20032;-73
2022/09/27 06:31:35;;;;;;;0.10;0.10;;;;;;;8.11;100.00;99731.81;5078764;28;20035;-74
2022/09/27 06:34:01;;;;;;;0.10;0.10;;;;;;;8.14;100.00;99740.56;5077109;28;20058;-72
2022/09/27 06:36:26;;;;;;;0.10;0.10;;;;;;;8.34;100.00;99752.25;5077256;28;20210;-72
2022/09/27 06:38:51;;;;;;;0.10;0.10;;;;;;;8.26;100.00;99759.09;5078537;28;20089;-73
2022/09/27 06:41:17;;;;;;;0.10;0.10;;;;;;;8.19;100.00;99735.69;5075814;28;20524;-76
2022/09/27 06:43:42;;;;;;;0.10;0.10;;;;;;;8.26;100.00;99755.56;5068603;28;20052;-72
2022/09/27 06:46:07;;;;;;;0.10;0.10;;;;;;;8.14;100.00;99745.91;5074947;28;20035;-72
2022/09/27 06:48:36;;;;;;;0.10;0.10;;;;;;;8.14;100.00;99743.25;5081110;28;20296;-70
2022/09/27 06:51:02;;;;;;;0.10;0.10;;;;;;;8.13;100.00;99736.19;5082622;28;20035;-73
2022/09/27 06:53:28;;;;;;;0.10;0.10;;;;;;;8.33;100.00;99745.19;5081916;28;20028;-73
2022/09/27 06:55:56;;;;;;;0.10;0.10;;;;;;;8.24;100.00;99722.78;5075258;28;20031;-72
2022/09/27 07:01:06;;;;;;;0.10;0.10;;;;;;;8.33;100.00;99707.75;5077555;28;20069;-73
2022/09/27 07:03:31;;;;;;;0.10;0.10;;;;;;;8.26;100.00;99729.66;5083516;28;20060;-73
2022/09/27 07:05:59;;;;;;;0.10;0.10;;;;;;;8.37;100.00;99728.75;5082663;28;20111;-72
2022/09/27 07:08:27;;;;;;;0.10;0.10;;;;;;;8.39;100.00;99745.50;5077497;28;20024;-73
2022/09/27 07:10:54;;;;;;;0.10;0.10;;;;;;;8.48;100.00;99745.69;5079774;28;20029;-71
2022/09/27 07:13:20;;;;;;;0.10;0.10;;;;;;;8.60;100.00;99749.16;5078797;28;20505;-73
2022/09/27 07:15:45;;;;;;;0.00;0.00;;;;;;;8.48;100.00;99754.59;5072380;28;20059;-73
2022/09/27 07:18:10;;;;;;;0.10;0.10;;;;;;;8.44;100.00;99760.31;5078902;28;20135;-73
2022/09/27 07:20:37;;;;;;;0.10;0.10;;;;;;;8.51;100.00;99745.47;5070633;28;20458;-71
2022/09/27 07:23:04;;;;;;;0.10;0.10;;;;;;;8.39;100.00;99744.66;5077931;28;20030;-78
2022/09/27 07:25:29;;;;;;;0.05;0.05;;;;;;;8.68;100.00;99763.56;5083163;28;20025;-74
2022/09/27 07:27:59;;;;;;;0.10;0.10;;;;;;;8.52;100.00;99760.53;5080668;28;20367;-77
2022/09/27 07:30:25;;;;;;;0.10;0.10;;;;;;;8.73;100.00;99770.34;5075978;28;20024;-72
2022/09/27 07:32:58;;;;;;;0.10;0.10;;;;;;;8.63;100.00;99743.56;5079031;28;20485;-70
2022/09/27 07:35:24;;;;;;;0.10;0.10;;;;;;;8.73;100.00;99765.88;5077810;28;20032;-73
2022/09/27 07:37:49;;;;;;;0.10;0.10;;;;;;;8.78;100.00;99782.34;5075687;28;20035;-73
2022/09/27 07:40:15;;;;;;;0.08;0.08;;;;;;;8.72;100.00;99780.22;5088836;28;20032;-71
2022/09/27 07:42:40;;;;;;;0.10;0.10;;;;;;;8.60;100.00;99776.78;5086200;28;20028;-72
2022/09/27 07:45:06;;;;;;;0.10;0.10;;;;;;;8.73;100.00;99784.59;5081201;28;20390;-71
2022/09/27 07:47:32;;;;;;;0.10;0.10;;;;;;;8.77;100.00;99783.31;5076103;28;20032;-72
2022/09/27 07:49:57;;;;;;;0.10;0.10;;;;;;;8.81;100.00;99786.59;5083644;28;20082;-71
2022/09/27 07:52:22;;;;;;;0.10;0.10;;;;;;;8.81;100.00;99783.94;5079314;28;21639;-73
2022/09/27 07:54:48;;;;;;;0.10;0.10;;;;;;;8.87;100.00;99785.22;5079013;28;20111;-71
2022/09/27 07:57:14;;;;;;;0.10;0.10;;;;;;;8.93;100.00;99779.31;5082963;28;20039;-70
2022/09/27 07:59:39;;;;;;;0.10;0.10;;;;;;;8.74;100.00;99772.06;5075733;28;20035;-73
2022/09/27 08:02:05;;;;;;;0.10;0.10;;;;;;;8.80;100.00;99788.41;5076803;28;20285;-69
2022/09/27 08:04:31;;;;;;;0.10;0.10;;;;;;;8.92;100.00;99794.53;5079236;28;20020;-70
2022/09/27 08:06:56;;;;;;;0.10;0.10;;;;;;;8.88;100.00;99797.59;5080892;28;20056;-68
2022/09/27 08:09:21;;;;;;;0.10;0.10;;;;;;;8.69;100.00;99762.59;5076967;28;20051;-74
2022/09/27 08:11:47;;;;;;;0.10;0.10;;;;;;;8.89;100.00;99800.13;5085744;28;20068;-70
2022/09/27 08:14:13;;;;;;;0.10;0.10;;;;;;;8.91;100.00;99794.66;5078475;28;20028;-71
2022/09/27 08:16:39;;;;;;;0.10;0.10;;;;;;;8.78;100.00;99787.69;5081479;28;20024;-70
2022/09/27 08:19:04;;;;;;;0.10;0.10;;;;;;;8.81;100.00;99779.41;5068613;28;20077;-72
2022/09/27 08:21:29;;;;;;;0.10;0.10;;;;;;;9.07;100.00;99810.22;5080648;28;20024;-70
2022/09/27 08:23:55;;;;;;;0.10;0.10;;;;;;;9.11;100.00;99804.47;5083558;28;20478;-70
2022/09/27 08:26:20;;;;;;;0.10;0.10;;;;;;;9.28;100.00;99802.09;5078681;28;20038;-72
2022/09/27 08:28:46;;;;;;;0.10;0.10;;;;;;;9.15;100.00;99788.97;5080198;28;20335;-72
2022/09/27 08:31:12;;;;;;;0.10;0.10;;;;;;;9.39;100.00;99803.84;5064667;28;20118;-70
2022/09/27 08:33:37;;;;;;;0.10;0.10;;;;;;;9.36;100.00;99799.59;5077309;28;20032;-71
2022/09/27 08:36:02;;;;;;;0.10;0.10;;;;;;;9.44;100.00;99805.13;5075850;28;20038;-71
2022/09/27 08:38:28;;;;;;;0.10;0.10;;;;;;;9.60;100.00;99811.78;5078694;28;20052;-71
2022/09/27 08:40:56;;;;;;;0.00;0.00;;;;;;;9.70;100.00;99806.44;5083530;28;20386;-71
2022/09/27 08:43:55;;;;;;;0.10;0.10;;;;;;;9.77;100.00;99815.63;5078234;28;20037;-72
2022/09/27 08:46:37;;;;;;;0.10;0.10;;;;;;;9.82;100.00;99808.00;5081139;28;20032;-72
2022/09/27 08:49:05;;;;;;;0.10;0.10;;;;;;;9.76;100.00;99816.59;5077878;28;20108;-70
2022/09/27 08:51:32;;;;;;;0.10;0.10;;;;;;;9.68;100.00;99795.00;5075897;28;20553;-69
2022/09/27 08:54:07;;;;;;;0.10;0.10;;;;;;;9.80;100.00;99809.97;5085613;28;20055;-69
2022/09/27 08:56:33;;;;;;;0.10;0.10;;;;;;;9.87;100.00;99810.25;5049595;28;20439;-70
2022/09/27 08:59:13;;;;;;;0.10;0.10;;;;;;;9.82;100.00;99821.41;5075831;28;20036;-72
2022/09/27 09:01:40;;;;;;;0.10;0.10;;;;;;;9.47;100.00;99787.09;5080486;28;20031;-69
2022/09/27 09:04:06;;;;;;;0.10;0.10;;;;;;;9.47;100.00;99814.72;5091214;28;20404;-70
2022/09/27 09:06:40;;;;;;;0.10;0.10;;;;;;;9.31;100.00;99801.84;5078388;28;20024;-71
2022/09/27 09:09:26;;;;;;;0.10;0.10;;;;;;;9.35;100.00;99839.94;5077549;28;20028;-70
2022/09/27 09:15:15;;;;;;;0.00;0.00;;;;;;;9.40;100.00;99837.69;5079662;28;20101;-72
2022/09/27 09:17:48;;;;;;;;;;;;;;;9.27;100.00;99837.94;5076362;28;20034;-70
2022/09/27 09:20:28;;;;;;;0.10;0.10;;;;;;;9.29;100.00;99842.16;5076979;28;19949;-70
2022/09/27 09:23:17;;;;;;;0.10;0.10;;;;;;;9.26;100.00;99836.25;5077495;28;20027;-72
2022/09/27 09:25:46;;;;;;;0.10;0.10;;;;;;;9.37;100.00;99825.41;5070406;28;20031;-70
2022/09/27 09:28:40;;;;;;;0.10;0.10;;;;;;;9.21;100.00;99836.63;5074581;28;20849;-71
2022/09/27 09:31:19;;;;;;;0.10;0.10;;;;;;;9.21;100.00;99833.94;5085066;28;20041;-70
2022/09/27 09:33:55;;;;;;;0.10;0.10;;;;;;;9.25;100.00;99827.34;5071887;28;20116;-69
2022/09/27 09:36:33;;;;;;;0.00;0.00;;;;;;;9.26;100.00;99831.72;5078962;28;20028;-71
2022/09/27 09:39:07;;;;;;;0.10;0.10;;;;;;;9.33;100.00;99840.06;5072443;28;20074;-71
2022/09/27 09:41:53;;;;;;;0.03;0.03;;;;;;;9.04;100.00;99783.72;5075057;28;20733;-70
2022/09/27 09:44:23;;;;;;;0.10;0.10;;;;;;;9.35;100.00;99829.22;5076715;28;20030;-71
2022/09/27 09:46:52;;;;;;;0.10;0.10;;;;;;;9.30;100.00;99819.75;5059750;28;20028;-71
2022/09/27 09:49:30;;;;;;;0.08;0.08;;;;;;;9.30;100.00;99830.47;5082121;28;20134;-70
2022/09/27 09:52:01;;;;;;;0.10;0.10;;;;;;;9.41;100.00;99817.94;5077197;28;20028;-71
2022/09/27 09:54:36;;;;;;;0.10;0.10;;;;;;;9.33;100.00;99815.13;5072605;28;20049;-69
2022/09/27 09:57:15;;;;;;;0.10;0.10;;;;;;;9.42;100.00;99841.06;5089557;28;20028;-73
2022/09/27 09:59:42;;;;;;;0.10;0.10;;;;;;;9.57;100.00;99842.38;5079482;28;20481;-72
2022/09/27 10:02:29;;;;;;;0.00;0.00;;;;;;;9.60;100.00;99842.13;5085695;28;20568;-70
2022/09/27 10:04:55;;;;;;;0.10;0.10;;;;;;;9.61;100.00;99837.59;5082649;28;20035;-70
2022/09/27 10:07:24;;;;;;;0.00;0.00;;;;;;;9.62;100.00;99814.34;5079167;28;20028;-69
2022/09/27 10:09:54;;;;;;;0.10;0.10;;;;;;;9.80;100.00;99834.09;5090128;28;20020;-71
2022/09/27 10:12:20;;;;;;;0.10;0.10;;;;;;;9.75;100.00;99842.56;5084546;28;20095;-70
2022/09/27 10:14:47;;;;;;;0.10;0.10;;;;;;;9.75;100.00;99836.34;5073743;28;20801;-70
2022/09/27 10:17:16;;;;;;;0.00;0.00;;;;;;;9.71;100.00;99811.66;5092166;28;20509;-71
2022/09/27 10:19:43;;;;;;;0.10;0.10;;;;;;;9.74;100.00;99827.47;5089975;28;20028;-70
2022/09/27 10:22:35;;;;;;;0.10;0.10;;;;;;;9.85;100.00;99831.00;5083835;28;20123;-73
2022/09/27 10:25:05;;;;;;;0.08;0.08;;;;;;;9.91;100.00;99830.44;5081778;28;20386;-71
2022/09/27 10:27:40;;;;;;;0.10;0.10;;;;;;;9.96;100.00;99819.28;5078427;28;20626;-70
2022/09/27 10:30:06;;;;;;;0.10;0.10;;;;;;;10.01;100.00;99835.81;5081966;28;20062;-71
2022/09/27 10:32:35;;;;;;;0.10;0.10;;;;;;;10.01;100.00;99841.16;5086350;28;20150;-70
2022/09/27 10:35:28;;;;;;;0.10;0.10;;;;;;;10.02;100.00;99834.81;5083567;28;20059;-70
2022/09/27 10:37:53;;;;;;;0.10;0.10;;;;;;;10.03;100.00;99818.59;5082963;28;20066;-71
2022/09/27 10:40:32;;;;;;;0.00;0.00;;;;;;;10.05;100.00;99838.09;5084257;28;20115;-72
2022/09/27 10:42:58;;;;;;;0.10;0.10;;;;;;;9.98;100.00;99823.53;5085536;28;20069;-71
2022/09/27 10:45:31;;;;;;;0.00;0.00;;;;;;;10.03;100.00;99833.84;5087247;28;20457;-70
2022/09/27 10:47:58;;;;;;;0.08;0.08;;;;;;;10.09;100.00;99837.78;5077337;28;20100;-75
2022/09/27 10:50:26;;;;;;;0.10;0.10;;;;;;;10.15;100.00;99838.09;5075126;28;20509;-69
2022/09/27 10:53:10;;;;;;;0.10;0.10;;;;;;;10.32;100.00;99839.22;5077753;28;20048;-74
2022/09/27 10:55:36;;;;;;;0.10;0.10;;;;;;;10.19;100.00;99833.28;5076936;28;20028;-70
2022/09/27 10:58:02;;;;;;;0.08;0.08;;;;;;;10.26;100.00;99838.91;5080784;28;20032;-68
2022/09/27 11:00:31;;;;;;;0.00;0.00;;;;;;;10.17;100.00;99848.66;5078210;28;20024;-70
2022/09/27 11:03:01;;;;;;;0.10;0.10;;;;;;;10.21;100.00;99818.72;5084414;28;20229;-76
2022/09/27 11:05:30;;;;;;;0.10;0.10;;;;;;;10.33;100.00;99840.03;5081959;28;20073;-74
2022/09/27 11:07:58;;;;;;;0.10;0.10;;;;;;;10.25;100.00;99843.44;5079928;28;20434;-72
2022/09/27 11:10:30;;;;;;;0.10;0.10;;;;;;;10.56;100.00;99845.97;5077063;28;20445;-75
2022/09/27 11:13:14;;;;;;;0.00;0.00;;;;;;;10.41;100.00;99836.66;5074680;28;20554;-74
2022/09/27 11:16:08;;;;;;;0.00;0.00;;;;;;;10.54;100.00;99841.72;5075876;28;20730;-76
2022/09/27 11:18:45;;;;;;;0.00;0.00;;;;;;;10.54;100.00;99847.09;5074186;28;20108;-73
2022/09/27 11:21:33;;;;;;;0.00;0.00;;;;;;;10.26;100.00;99838.91;5076324;28;20032;-74
2022/09/27 11:24:53;;;;;;;0.00;0.00;;;;;;;10.26;100.00;99847.81;5074832;28;20498;-74
2022/09/27 11:27:54;;;;;;;0.00;0.00;;;;;;;10.26;100.00;99846.94;5071292;28;20383;-76
2022/09/27 11:30:20;;;;;;;0.08;0.08;;;;;;;10.30;100.00;99848.38;5078769;28;20585;-74
2022/09/27 11:33:12;;;;;;;0.00;0.00;;;;;;;10.06;100.00;99858.53;5075457;28;20070;-73
2022/09/27 11:35:43;;;;;;;0.10;0.10;;;;;;;10.09;100.00;99862.78;5075538;28;20081;-78
2022/09/27 11:38:22;;;;;;;0.00;0.00;;;;;;;10.05;100.00;99862.22;5076744;28;20025;-78
2022/09/27 11:41:03;;;;;;;0.00;0.00;;;;;;;9.65;100.00;99822.09;5074742;28;20025;-74
2022/09/27 11:43:35;;;;;;;0.10;0.10;;;;;;;9.94;100.00;99865.03;5073708;28;20031;-73
2022/09/27 11:46:00;;;;;;;0.08;0.08;;;;;;;10.00;100.00;99861.78;5079117;28;20123;-75
2022/09/27 11:48:48;;;;;;;0.10;0.10;;;;;;;9.88;100.00;99862.88;5082934;28;21025;-75
2022/09/27 11:51:30;;;;;;;0.10;0.10;;;;;;;9.69;100.00;99859.19;5076723;28;20024;-73
2022/09/27 11:54:26;;;;;;;0.10;0.10;;;;;;;9.52;100.00;99865.22;5077390;28;20028;-77